Time;durP1;ratioP1;P1;durP2;ratioP2;P2;SDS_P1;SDS_P2;PMS_P1;PMS_P2;Temp;Humidity;BMP_temperature;BMP_pressure;BME280_temperature;BME280_humidity;BME280_pressure;Samples;Min_cycle;Max_cycle;Signal;HPM_P1;HPM_P2
2021/01/23 00:01:18;;;;;;;0.57;0.57;;;;;;;;;;5059919;28;20203;-64
2021/01/23 00:03:45;;;;;;;0.00;0.00;;;;;;;;;;5054688;28;20172;-62
2021/01/23 00:06:12;;;;;;;0.00;0.00;;;;;;;;;;5037815;28;20299;-63
2021/01/23 00:08:38;;;;;;;0.10;0.10;;;;;;;;;;5033338;28;20189;-62
2021/01/23 00:11:05;;;;;;;0.00;0.00;;;;;;;;;;5050953;28;20176;-62
2021/01/23 00:13:32;;;;;;;0.20;0.20;;;;;;;;;;5050886;28;20360;-63
2021/01/23 00:16:00;;;;;;;0.10;0.10;;;;;;;;;;5038087;28;20269;-63
2021/01/23 00:18:26;;;;;;;0.00;0.00;;;;;;;;;;5046441;28;20227;-63
2021/01/23 00:20:54;;;;;;;0.17;0.17;;;;;;;;;;5050630;28;20215;-63
2021/01/23 00:23:22;;;;;;;0.20;0.20;;;;;;;;;;5061582;28;20192;-63
2021/01/23 00:25:48;;;;;;;0.00;0.00;;;;;;;;;;5060614;28;20196;-66
2021/01/23 00:28:16;;;;;;;0.00;0.00;;;;;;;;;;5041950;28;20742;-63
2021/01/23 00:30:42;;;;;;;0.00;0.00;;;;;;;;;;5049307;28;20208;-64
2021/01/23 00:33:09;;;;;;;0.00;0.00;;;;;;;;;;5051562;28;20244;-64
2021/01/23 00:35:37;;;;;;;0.00;0.00;;;;;;;;;;5052455;28;20200;-63
2021/01/23 00:38:04;;;;;;;0.20;0.20;;;;;;;;;;5058599;28;20209;-63
2021/01/23 14:04:23;;;;;;;0.13;0.13;;;;;;;;;;6060092;22;2281809;-64
2021/01/23 14:06:50;;;;;;;0.30;0.30;;;;;;;;;;6143618;23;20160;-64
2021/01/23 14:09:17;;;;;;;0.07;0.07;;;;;;;;;;6145128;23;20160;-64
2021/01/23 14:11:43;;;;;;;0.10;0.10;;;;;;;;;;6144578;23;20611;-63
2021/01/23 14:14:10;;;;;;;0.00;0.00;;;;;;;;;;6143818;23;20180;-63
2021/01/23 14:16:36;;;;;;;0.10;0.10;;;;;;;;;;6145376;23;20202;-65
2021/01/23 14:19:03;;;;;;;0.30;0.30;;;;;;;;;;6145759;23;20243;-64
2021/01/23 14:21:31;;;;;;;3.67;0.33;;;;;;;;;;6144510;23;20579;-65
2021/01/23 14:23:58;;;;;;;0.30;0.30;;;;;;;;;;6144419;23;20235;-65
2021/01/23 14:26:24;;;;;;;0.00;0.00;;;;;;;;;;6145073;23;20215;-63
2021/01/23 14:28:51;;;;;;;0.10;0.10;;;;;;;;;;6145417;23;20214;-65
2021/01/23 14:31:17;;;;;;;0.10;0.10;;;;;;;;;;6143242;23;20160;-64
2021/01/23 14:33:44;;;;;;;3.10;0.73;;;;;;;;;;6142835;23;20196;-64
2021/01/23 14:36:11;;;;;;;0.30;0.30;;;;;;;;;;6143713;23;20810;-67
2021/01/23 14:38:38;;;;;;;0.40;0.40;;;;;;;;;;6118242;23;20180;-64
2021/01/23 14:41:06;;;;;;;0.10;0.10;;;;;;;;;;6144204;23;20160;-64
2021/01/23 14:43:33;;;;;;;1.27;1.27;;;;;;;;;;6144310;23;20230;-65
2021/01/23 14:45:59;;;;;;;0.10;0.10;;;;;;;;;;6142814;23;20877;-65
2021/01/23 14:48:26;;;;;;;0.10;0.10;;;;;;;;;;6142071;23;20157;-64
2021/01/23 14:50:52;;;;;;;0.20;0.20;;;;;;;;;;6142694;23;20153;-64
2021/01/23 14:53:19;;;;;;;0.10;0.10;;;;;;;;;;6144282;23;20204;-65
2021/01/23 14:55:47;;;;;;;0.10;0.10;;;;;;;;;;6141014;23;20233;-66
2021/01/23 14:58:13;;;;;;;0.10;0.10;;;;;;;;;;6142419;23;20186;-64
2021/01/23 15:00:40;;;;;;;0.20;0.20;;;;;;;;;;6143489;23;20160;-65
2021/01/23 15:03:07;;;;;;;0.20;0.20;;;;;;;;;;6145795;23;20159;-66
2021/01/23 15:05:33;;;;;;;0.23;0.23;;;;;;;;;;6165885;23;20251;-64
2021/01/23 15:08:00;;;;;;;4.33;1.50;;;;;;;;;;6165814;23;20179;-64
2021/01/23 15:10:26;;;;;;;0.10;0.10;;;;;;;;;;6166652;23;20160;-65
2021/01/23 15:12:53;;;;;;;2.20;0.97;;;;;;;;;;6164401;23;20568;-64
2021/01/23 15:15:21;;;;;;;1.30;0.60;;;;;;;;;;6167238;23;20168;-64
2021/01/23 15:17:48;;;;;;;0.00;0.00;;;;;;;;;;6168048;23;20153;-64
2021/01/23 15:20:17;;;;;;;0.07;0.07;;;;;;;;;;6166197;23;20726;-64
2021/01/23 15:22:44;;;;;;;0.10;0.10;;;;;;;;;;6163286;22;20160;-63
2021/01/23 15:25:11;;;;;;;1.27;0.30;;;;;;;;;;6164035;23;20168;-65
2021/01/23 15:27:37;;;;;;;0.57;0.57;;;;;;;;;;6164467;23;20164;-65
2021/01/23 15:30:05;;;;;;;1.10;0.40;;;;;;;;;;6159874;23;20155;-64
2021/01/23 15:32:33;;;;;;;0.87;0.30;;;;;;;;;;6167243;22;20563;-65
2021/01/23 15:35:00;;;;;;;0.03;0.03;;;;;;;;;;6166524;23;20160;-64
2021/01/23 15:37:28;;;;;;;0.50;0.50;;;;;;;;;;6168022;23;20164;-66
2021/01/23 15:39:54;;;;;;;1.93;0.40;;;;;;;;;;6167902;23;20188;-64
2021/01/23 15:42:21;;;;;;;1.03;1.03;;;;;;;;;;6168304;23;20166;-65
2021/01/23 15:44:48;;;;;;;2.70;0.83;;;;;;;;;;6167682;23;20153;-64
2021/01/23 15:47:14;;;;;;;3.50;0.87;;;;;;;;;;6166676;23;20187;-64
2021/01/23 15:49:41;;;;;;;0.23;0.23;;;;;;;;;;6166475;23;20669;-65
2021/01/23 15:52:08;;;;;;;1.00;1.00;;;;;;;;;;6165687;23;20203;-65
2021/01/23 15:54:36;;;;;;;0.00;0.00;;;;;;;;;;6165159;23;20158;-65
2021/01/23 15:57:03;;;;;;;0.20;0.20;;;;;;;;;;6164494;23;20158;-64
2021/01/23 15:59:30;;;;;;;8.07;0.27;;;;;;;;;;6166414;23;20167;-64
2021/01/23 16:01:57;;;;;;;0.00;0.00;;;;;;;;;;6138299;23;20163;-64
2021/01/23 16:04:23;;;;;;;0.00;0.00;;;;;;;;;;6163646;23;20196;-64
2021/01/23 16:06:50;;;;;;;0.30;0.20;;;;;;;;;;6166080;23;20181;-66
2021/01/23 16:09:17;;;;;;;0.00;0.00;;;;;;;;;;6166563;23;20166;-64
2021/01/23 16:11:43;;;;;;;0.23;0.23;;;;;;;;;;6164067;23;20172;-64
2021/01/23 16:14:12;;;;;;;0.30;0.30;;;;;;;;;;6165190;23;20155;-65
2021/01/23 16:16:39;;;;;;;2.87;0.30;;;;;;;;;;6166945;22;20165;-64
2021/01/23 16:19:06;;;;;;;0.10;0.10;;;;;;;;;;6166067;23;21031;-65
2021/01/23 16:21:33;;;;;;;0.10;0.10;;;;;;;;;;6163340;23;20611;-67
2021/01/23 16:23:59;;;;;;;4.00;1.80;;;;;;;;;;6166409;23;20157;-65
2021/01/23 16:26:26;;;;;;;0.50;0.50;;;;;;;;;;6166970;23;20190;-66
2021/01/23 16:28:52;;;;;;;0.10;0.10;;;;;;;;;;6166080;23;20508;-66
2021/01/23 16:31:19;;;;;;;1.07;0.17;;;;;;;;;;6160363;23;20184;-66
2021/01/23 16:33:46;;;;;;;0.10;0.10;;;;;;;;;;6164201;23;20196;-65
2021/01/23 16:36:13;;;;;;;0.47;0.47;;;;;;;;;;6165033;23;20184;-67
2021/01/23 16:38:40;;;;;;;0.10;0.10;;;;;;;;;;6163056;23;20163;-65
2021/01/23 16:41:07;;;;;;;0.10;0.10;;;;;;;;;;6165188;23;20852;-66
2021/01/23 16:43:35;;;;;;;0.03;0.03;;;;;;;;;;6165570;23;20238;-65
2021/01/23 16:46:02;;;;;;;3.00;2.20;;;;;;;;;;6139275;23;20240;-67
2021/01/23 16:48:29;;;;;;;0.10;0.10;;;;;;;;;;6164683;23;20460;-65
2021/01/23 16:50:56;;;;;;;0.07;0.07;;;;;;;;;;6163213;23;20166;-65
2021/01/23 16:53:25;;;;;;;0.00;0.00;;;;;;;;;;6164311;22;20907;-65
2021/01/23 16:55:52;;;;;;;0.00;0.00;;;;;;;;;;6166478;23;20164;-65
2021/01/23 16:58:19;;;;;;;0.10;0.10;;;;;;;;;;6167208;23;20181;-64
2021/01/23 17:00:46;;;;;;;0.10;0.10;;;;;;;;;;6166839;23;20160;-66
2021/01/23 17:03:12;;;;;;;0.10;0.10;;;;;;;;;;6165436;23;20188;-66
2021/01/23 17:05:39;;;;;;;2.37;0.37;;;;;;;;;;6136639;23;20489;-64
2021/01/23 17:08:06;;;;;;;0.10;0.10;;;;;;;;;;6167100;23;20160;-65
2021/01/23 17:10:33;;;;;;;0.27;0.27;;;;;;;;;;6164878;23;20168;-66
2021/01/23 17:13:01;;;;;;;0.10;0.10;;;;;;;;;;6162339;23;20250;-66
2021/01/23 17:15:27;;;;;;;0.27;0.27;;;;;;;;;;6163269;23;20198;-64
2021/01/23 17:17:54;;;;;;;1.37;0.97;;;;;;;;;;6163184;23;20157;-64
2021/01/23 17:20:21;;;;;;;0.10;0.10;;;;;;;;;;6163773;23;20255;-66
2021/01/23 17:22:49;;;;;;;0.40;0.40;;;;;;;;;;6164734;23;21039;-64
2021/01/23 17:25:17;;;;;;;0.40;0.40;;;;;;;;;;6165590;22;20156;-67
2021/01/23 17:27:43;;;;;;;0.10;0.10;;;;;;;;;;6164676;23;20160;-65
2021/01/23 17:30:10;;;;;;;0.10;0.10;;;;;;;;;;6166183;23;20767;-65
2021/01/23 17:32:37;;;;;;;0.17;0.17;;;;;;;;;;6166284;23;20638;-66
2021/01/23 17:35:04;;;;;;;0.10;0.10;;;;;;;;;;6166933;23;20239;-65
2021/01/23 17:37:31;;;;;;;0.10;0.10;;;;;;;;;;6167308;23;20672;-67
2021/01/23 17:39:58;;;;;;;0.10;0.10;;;;;;;;;;6167655;23;21008;-64
2021/01/23 17:42:25;;;;;;;6.10;1.47;;;;;;;;;;6167635;23;20175;-65
2021/01/23 17:44:51;;;;;;;0.10;0.10;;;;;;;;;;6166464;23;20164;-66
2021/01/23 17:47:18;;;;;;;0.30;0.30;;;;;;;;;;6167203;23;20205;-65
2021/01/23 17:49:45;;;;;;;5.10;0.70;;;;;;;;;;6166705;23;20487;-64
2021/01/23 17:52:12;;;;;;;0.27;0.27;;;;;;;;;;6167229;23;20184;-65
2021/01/23 17:54:39;;;;;;;0.00;0.00;;;;;;;;;;6167541;23;20188;-65
2021/01/23 17:57:06;;;;;;;0.13;0.13;;;;;;;;;;6166671;23;20451;-65
2021/01/23 17:59:32;;;;;;;0.40;0.10;;;;;;;;;;6167342;23;20630;-65
2021/01/23 18:01:59;;;;;;;0.20;0.20;;;;;;;;;;6167186;23;20171;-65
2021/01/23 18:04:26;;;;;;;0.20;0.20;;;;;;;;;;6166576;23;20207;-64
2021/01/23 18:06:52;;;;;;;0.20;0.20;;;;;;;;;;6166434;23;20171;-67
2021/01/23 18:09:20;;;;;;;0.23;0.13;;;;;;;;;;6167484;23;20171;-65
2021/01/23 18:11:47;;;;;;;0.10;0.10;;;;;;;;;;6167099;23;20251;-65
2021/01/23 18:14:14;;;;;;;0.10;0.10;;;;;;;;;;6166729;23;20587;-64
2021/01/23 18:16:40;;;;;;;0.10;0.10;;;;;;;;;;6167579;23;20152;-66
2021/01/23 18:19:07;;;;;;;0.27;0.27;;;;;;;;;;6166365;23;20167;-66
2021/01/23 18:21:33;;;;;;;0.57;0.33;;;;;;;;;;6168646;23;20181;-65
2021/01/23 18:24:00;;;;;;;0.43;0.43;;;;;;;;;;6168073;23;20156;-65
2021/01/23 18:26:27;;;;;;;1.80;1.23;;;;;;;;;;6167391;23;20226;-66
2021/01/23 18:28:53;;;;;;;0.10;0.10;;;;;;;;;;6167285;23;20157;-65
2021/01/23 18:31:20;;;;;;;2.63;0.60;;;;;;;;;;6167611;23;20156;-65
2021/01/23 18:33:47;;;;;;;0.80;0.80;;;;;;;;;;6167372;23;20217;-65
2021/01/23 18:36:13;;;;;;;0.10;0.10;;;;;;;;;;6168043;23;20748;-65
2021/01/23 18:38:40;;;;;;;0.10;0.10;;;;;;;;;;6168631;23;20179;-65
2021/01/23 18:41:08;;;;;;;0.07;0.07;;;;;;;;;;6168843;23;20156;-65
2021/01/23 18:43:35;;;;;;;0.10;0.10;;;;;;;;;;6167163;23;20183;-65
2021/01/23 18:46:01;;;;;;;0.57;0.40;;;;;;;;;;6168973;23;20161;-65
2021/01/23 18:48:28;;;;;;;0.10;0.10;;;;;;;;;;6167161;23;20243;-65
2021/01/23 18:50:55;;;;;;;0.10;0.10;;;;;;;;;;6141554;23;20161;-65
2021/01/23 18:53:21;;;;;;;0.10;0.10;;;;;;;;;;6167941;23;20639;-65
2021/01/23 18:55:48;;;;;;;1.43;0.73;;;;;;;;;;6167952;23;20159;-64
2021/01/23 18:58:15;;;;;;;0.40;0.40;;;;;;;;;;6168507;23;20646;-67
2021/01/23 19:00:41;;;;;;;0.30;0.30;;;;;;;;;;6167479;23;20189;-66
2021/01/23 19:03:08;;;;;;;1.73;0.40;;;;;;;;;;6167611;23;20156;-65
2021/01/23 19:05:35;;;;;;;2.33;1.47;;;;;;;;;;6168768;22;20164;-66
2021/01/23 19:08:02;;;;;;;13.60;1.63;;;;;;;;;;6168126;23;20162;-66
2021/01/23 19:10:29;;;;;;;0.00;0.00;;;;;;;;;;6168815;22;20172;-65
2021/01/23 19:12:55;;;;;;;0.10;0.10;;;;;;;;;;6169252;23;20198;-64
2021/01/23 19:15:22;;;;;;;0.10;0.10;;;;;;;;;;6168010;23;20166;-65
2021/01/23 19:17:48;;;;;;;0.27;0.27;;;;;;;;;;6167861;23;20168;-65
2021/01/23 19:20:18;;;;;;;3.00;0.20;;;;;;;;;;6169321;23;20579;-65
2021/01/23 19:22:44;;;;;;;0.00;0.00;;;;;;;;;;6167040;22;20160;-66
2021/01/23 19:25:11;;;;;;;0.00;0.00;;;;;;;;;;6162475;23;20149;-66
2021/01/23 19:27:38;;;;;;;0.10;0.10;;;;;;;;;;6165435;23;20157;-66
2021/01/23 19:30:06;;;;;;;3.40;0.77;;;;;;;;;;6166856;23;20597;-65
2021/01/23 19:32:33;;;;;;;0.60;0.60;;;;;;;;;;6166538;23;20399;-67
2021/01/23 19:35:00;;;;;;;0.23;0.10;;;;;;;;;;6168798;23;20206;-65
2021/01/23 19:37:27;;;;;;;1.00;0.90;;;;;;;;;;6168007;23;20267;-66
2021/01/23 19:39:54;;;;;;;0.20;0.20;;;;;;;;;;6168344;23;20152;-65
2021/01/23 19:42:20;;;;;;;0.10;0.10;;;;;;;;;;6167810;23;20167;-66
2021/01/23 19:44:47;;;;;;;0.23;0.23;;;;;;;;;;6168150;23;20156;-66
2021/01/23 19:47:13;;;;;;;0.20;0.20;;;;;;;;;;6168264;23;20194;-66
2021/01/23 19:49:40;;;;;;;0.20;0.20;;;;;;;;;;6168238;23;20157;-66
2021/01/23 19:52:06;;;;;;;1.43;0.70;;;;;;;;;;6168373;23;20188;-67
2021/01/23 19:54:33;;;;;;;0.23;0.23;;;;;;;;;;6167353;23;20164;-67
2021/01/23 19:57:01;;;;;;;0.10;0.10;;;;;;;;;;6167977;23;20160;-65
2021/01/23 19:59:27;;;;;;;0.63;0.40;;;;;;;;;;6141446;22;20160;-66
2021/01/23 20:01:54;;;;;;;0.30;0.30;;;;;;;;;;6168324;23;20157;-65
2021/01/23 20:04:21;;;;;;;0.10;0.10;;;;;;;;;;6168724;23;20196;-65
2021/01/23 20:06:47;;;;;;;0.10;0.10;;;;;;;;;;6168384;23;20156;-67
2021/01/23 20:09:14;;;;;;;1.90;0.87;;;;;;;;;;6165829;23;20164;-66
2021/01/23 20:11:43;;;;;;;0.13;0.13;;;;;;;;;;6168083;23;20157;-65
2021/01/23 20:14:09;;;;;;;0.00;0.00;;;;;;;;;;6165189;22;20156;-66
2021/01/23 20:16:37;;;;;;;2.23;0.30;;;;;;;;;;6167048;23;20165;-66
2021/01/23 20:19:04;;;;;;;0.73;0.50;;;;;;;;;;6168402;23;20653;-65
2021/01/23 20:21:30;;;;;;;0.00;0.00;;;;;;;;;;6168065;23;20169;-65
2021/01/23 20:23:57;;;;;;;0.07;0.07;;;;;;;;;;6167435;23;20170;-65
2021/01/23 20:26:26;;;;;;;0.20;0.20;;;;;;;;;;6167045;23;20171;-66
2021/01/23 20:28:53;;;;;;;0.10;0.10;;;;;;;;;;6158696;23;20730;-65
2021/01/23 20:31:19;;;;;;;0.10;0.10;;;;;;;;;;6164350;23;20238;-65
2021/01/23 20:33:49;;;;;;;0.30;0.30;;;;;;;;;;6168122;23;20767;-65
2021/01/23 20:36:16;;;;;;;6.90;0.70;;;;;;;;;;6167036;22;20157;-65
2021/01/23 20:38:42;;;;;;;0.23;0.23;;;;;;;;;;6167700;23;20164;-65
2021/01/23 20:41:09;;;;;;;0.10;0.10;;;;;;;;;;6167192;23;20175;-65
2021/01/23 20:43:39;;;;;;;0.00;0.00;;;;;;;;;;6166009;23;20160;-65
2021/01/23 20:46:07;;;;;;;1.13;1.13;;;;;;;;;;6166843;22;20153;-64
2021/01/23 20:48:34;;;;;;;0.00;0.00;;;;;;;;;;6167581;22;20160;-64
2021/01/23 20:51:01;;;;;;;1.93;1.93;;;;;;;;;;6168228;23;20160;-65
2021/01/23 20:53:28;;;;;;;0.20;0.20;;;;;;;;;;6166948;23;20200;-65
2021/01/23 20:55:54;;;;;;;3.63;2.83;;;;;;;;;;6160788;23;20511;-65
2021/01/23 20:58:23;;;;;;;0.00;0.00;;;;;;;;;;6164435;23;20235;-65
2021/01/23 21:00:52;;;;;;;0.10;0.10;;;;;;;;;;6165204;23;20506;-65
2021/01/23 21:03:19;;;;;;;0.10;0.10;;;;;;;;;;6167357;23;20333;-65
2021/01/23 21:05:46;;;;;;;0.30;0.30;;;;;;;;;;6167492;23;20157;-64
2021/01/23 21:08:12;;;;;;;0.67;0.23;;;;;;;;;;6166773;23;20238;-65
2021/01/23 21:10:39;;;;;;;0.20;0.20;;;;;;;;;;6165588;23;20864;-66
2021/01/23 21:13:06;;;;;;;1.43;1.00;;;;;;;;;;6158528;23;20296;-67
2021/01/23 21:15:32;;;;;;;0.07;0.07;;;;;;;;;;6162418;23;20164;-65
2021/01/23 21:17:59;;;;;;;0.00;0.00;;;;;;;;;;6164978;23;20167;-65
2021/01/23 21:20:26;;;;;;;0.10;0.10;;;;;;;;;;6165240;23;20221;-65
2021/01/23 21:22:53;;;;;;;0.00;0.00;;;;;;;;;;6167370;23;20791;-65
2021/01/23 21:25:19;;;;;;;0.50;0.47;;;;;;;;;;6167306;23;20583;-65
2021/01/23 21:27:46;;;;;;;0.10;0.10;;;;;;;;;;6165328;23;20192;-65
2021/01/23 21:30:13;;;;;;;0.27;0.27;;;;;;;;;;6166652;23;20185;-66
2021/01/23 21:32:40;;;;;;;0.80;0.80;;;;;;;;;;6139565;22;20196;-66
2021/01/23 21:35:08;;;;;;;1.90;1.50;;;;;;;;;;6165537;22;20159;-64
2021/01/23 21:37:35;;;;;;;0.13;0.13;;;;;;;;;;6165302;23;20601;-66
2021/01/23 21:40:03;;;;;;;0.00;0.00;;;;;;;;;;6165721;22;20168;-65
2021/01/23 21:42:29;;;;;;;0.00;0.00;;;;;;;;;;6165832;23;20168;-65
2021/01/23 21:44:56;;;;;;;1.50;0.57;;;;;;;;;;6166135;23;20157;-65
2021/01/23 21:47:23;;;;;;;0.00;0.00;;;;;;;;;;6166702;23;20510;-66
2021/01/23 21:49:50;;;;;;;0.53;0.40;;;;;;;;;;6167288;23;20180;-65
2021/01/23 21:52:17;;;;;;;0.10;0.10;;;;;;;;;;6166503;23;20188;-66
2021/01/23 21:54:43;;;;;;;0.20;0.20;;;;;;;;;;6139970;23;20161;-66
2021/01/23 21:57:10;;;;;;;0.00;0.00;;;;;;;;;;6163645;23;20168;-66
2021/01/23 21:59:37;;;;;;;0.63;0.63;;;;;;;;;;6165909;23;20263;-67
2021/01/23 22:02:03;;;;;;;0.00;0.00;;;;;;;;;;6164427;23;20171;-67
2021/01/23 22:04:30;;;;;;;0.20;0.20;;;;;;;;;;6164157;23;20249;-65
2021/01/23 22:06:57;;;;;;;0.00;0.00;;;;;;;;;;6163601;23;20254;-67
2021/01/23 22:09:23;;;;;;;3.70;3.00;;;;;;;;;;6163319;23;20238;-65
2021/01/23 22:11:50;;;;;;;0.00;0.00;;;;;;;;;;6164233;23;20461;-64
2021/01/23 22:14:17;;;;;;;0.00;0.00;;;;;;;;;;6164875;23;20159;-65
2021/01/23 22:16:43;;;;;;;0.00;0.00;;;;;;;;;;6166810;23;20724;-66
2021/01/23 22:19:10;;;;;;;3.60;1.23;;;;;;;;;;6167166;23;20156;-63
2021/01/23 22:21:36;;;;;;;0.00;0.00;;;;;;;;;;6166573;23;20159;-65
2021/01/23 22:24:03;;;;;;;0.00;0.00;;;;;;;;;;6166843;23;20237;-65
2021/01/23 22:26:30;;;;;;;2.27;0.30;;;;;;;;;;6165926;23;20167;-63
2021/01/23 22:28:56;;;;;;;3.37;1.87;;;;;;;;;;6166949;23;20159;-65
2021/01/23 22:31:23;;;;;;;0.00;0.00;;;;;;;;;;6167111;23;20219;-65
2021/01/23 22:33:50;;;;;;;1.20;1.20;;;;;;;;;;6167012;23;20199;-63
2021/01/23 22:36:17;;;;;;;0.00;0.00;;;;;;;;;;6139209;23;20159;-65
2021/01/23 22:38:43;;;;;;;0.00;0.00;;;;;;;;;;6166193;23;20162;-66
2021/01/23 22:41:10;;;;;;;1.67;1.47;;;;;;;;;;6163653;23;20154;-66
2021/01/23 22:43:37;;;;;;;0.40;0.40;;;;;;;;;;6164459;23;20231;-65
2021/01/23 22:46:04;;;;;;;0.10;0.10;;;;;;;;;;6162660;23;20263;-64
2021/01/23 22:48:31;;;;;;;0.00;0.00;;;;;;;;;;6162940;23;20647;-65
2021/01/23 22:50:58;;;;;;;0.00;0.00;;;;;;;;;;6163566;23;20164;-66
2021/01/23 22:53:27;;;;;;;0.00;0.00;;;;;;;;;;6137729;23;20203;-65
2021/01/23 22:55:55;;;;;;;0.00;0.00;;;;;;;;;;6165695;22;20167;-67
2021/01/23 22:58:22;;;;;;;0.00;0.00;;;;;;;;;;6165885;22;20151;-65
2021/01/23 23:00:51;;;;;;;0.00;0.00;;;;;;;;;;6165920;23;20160;-64
2021/01/23 23:03:17;;;;;;;0.20;0.20;;;;;;;;;;6166131;23;20198;-66
2021/01/23 23:05:46;;;;;;;0.00;0.00;;;;;;;;;;6166199;23;20156;-66
2021/01/23 23:08:13;;;;;;;0.00;0.00;;;;;;;;;;6164881;23;20645;-64
2021/01/23 23:10:41;;;;;;;0.00;0.00;;;;;;;;;;6161380;23;20166;-65
2021/01/23 23:13:08;;;;;;;0.10;0.10;;;;;;;;;;6165087;23;20282;-65
2021/01/23 23:15:37;;;;;;;0.17;0.17;;;;;;;;;;6166888;23;20468;-67
2021/01/23 23:18:05;;;;;;;0.00;0.00;;;;;;;;;;6165159;23;20562;-67
2021/01/23 23:20:31;;;;;;;0.00;0.00;;;;;;;;;;6164956;23;20160;-66
2021/01/23 23:23:00;;;;;;;0.00;0.00;;;;;;;;;;6164774;23;20160;-66
2021/01/23 23:25:29;;;;;;;0.00;0.00;;;;;;;;;;6165076;22;20532;-65
2021/01/23 23:27:56;;;;;;;0.00;0.00;;;;;;;;;;6166132;23;20175;-66
2021/01/23 23:30:22;;;;;;;0.00;0.00;;;;;;;;;;6165439;23;20155;-65
2021/01/23 23:32:49;;;;;;;0.20;0.20;;;;;;;;;;6165869;23;20202;-64
2021/01/23 23:35:16;;;;;;;0.00;0.00;;;;;;;;;;6166188;22;20160;-67
2021/01/23 23:37:46;;;;;;;0.00;0.00;;;;;;;;;;6165490;23;20209;-67
2021/01/23 23:40:15;;;;;;;0.00;0.00;;;;;;;;;;6165134;23;20156;-66
2021/01/23 23:42:43;;;;;;;0.00;0.00;;;;;;;;;;6150043;23;20750;-65
2021/01/23 23:45:10;;;;;;;0.60;0.53;;;;;;;;;;6145300;23;20473;-67
2021/01/23 23:47:37;;;;;;;6.53;0.60;;;;;;;;;;6163125;23;20163;-66
2021/01/23 23:50:05;;;;;;;0.00;0.00;;;;;;;;;;6138252;23;20162;-65
2021/01/23 23:52:33;;;;;;;0.10;0.10;;;;;;;;;;6163223;23;20200;-66
2021/01/23 23:55:00;;;;;;;0.00;0.00;;;;;;;;;;6163483;23;20163;-65
2021/01/23 23:57:26;;;;;;;0.00;0.00;;;;;;;;;;6162828;23;20182;-64
2021/01/23 23:59:54;;;;;;;0.10;0.10;;;;;;;;;;6165644;23;20194;-65
